createdAt,value
2023-09-03T00:02:04.200Z,20.50
2023-09-03T00:04:30.870Z,20.50
2023-09-03T00:06:57.468Z,20.50
2023-09-03T00:09:24.069Z,20.40
2023-09-03T00:11:50.672Z,20.40
2023-09-03T00:14:17.655Z,20.30
2023-09-03T00:16:44.328Z,20.30
2023-09-03T00:19:11.439Z,20.20
2023-09-03T00:21:38.191Z,20.20
2023-09-03T00:24:05.011Z,20.10
2023-09-03T00:26:31.606Z,20.20
2023-09-03T00:28:58.367Z,20.10
2023-09-03T00:31:26.518Z,20.10
2023-09-03T00:33:53.264Z,20.10
2023-09-03T00:36:19.965Z,20.20
2023-09-03T00:38:50.777Z,20.20
2023-09-03T00:41:17.454Z,20.20
2023-09-03T00:43:44.094Z,20.20
2023-09-03T00:46:11.080Z,20.20
2023-09-03T00:48:39.869Z,20.20
2023-09-03T00:51:11.161Z,20.20
2023-09-03T00:53:41.474Z,20.20
2023-09-03T00:56:09.466Z,20.30
2023-09-03T00:58:37.707Z,20.20
2023-09-03T01:01:05.926Z,20.20
2023-09-03T01:03:33.358Z,20.20
2023-09-03T01:06:00.336Z,20.10
2023-09-03T01:08:28.105Z,20.10
2023-09-03T01:11:20.757Z,20.10
2023-09-03T01:14:19.172Z,20.10
2023-09-03T01:17:11.513Z,20.00
2023-09-03T01:20:04.906Z,20.00
2023-09-03T01:23:00.265Z,20.00
2023-09-03T01:25:57.408Z,20.10
2023-09-03T01:28:25.550Z,20.00
2023-09-03T01:31:03.850Z,20.00
2023-09-03T01:33:32.176Z,20.00
2023-09-03T01:36:00.204Z,19.90
2023-09-03T01:38:27.643Z,19.90
2023-09-03T01:41:00.189Z,19.90
2023-09-03T01:43:27.399Z,19.80
2023-09-03T01:46:06.506Z,19.80
2023-09-03T01:48:44.244Z,19.80
2023-09-03T01:51:14.006Z,19.80
2023-09-03T01:53:56.562Z,19.80
2023-09-03T01:56:26.870Z,19.80
2023-09-03T01:58:56.405Z,19.70
2023-09-03T02:01:25.526Z,19.70
2023-09-03T02:03:53.547Z,19.70
2023-09-03T02:06:20.166Z,19.60
2023-09-03T02:08:46.836Z,19.70
2023-09-03T02:11:13.586Z,19.70
2023-09-03T02:13:41.369Z,19.70
2023-09-03T02:16:08.064Z,19.70
2023-09-03T02:18:34.722Z,19.70
2023-09-03T02:21:01.341Z,19.70
2023-09-03T02:23:27.987Z,19.70
2023-09-03T02:26:02.755Z,19.70
2023-09-03T02:28:30.066Z,19.60
2023-09-03T02:30:56.865Z,19.60
2023-09-03T02:33:23.669Z,19.60
2023-09-03T02:35:51.265Z,19.60
2023-09-03T02:38:18.103Z,19.60
2023-09-03T02:40:46.051Z,19.50
2023-09-03T02:43:13.512Z,19.50
2023-09-03T02:45:40.340Z,19.50
2023-09-03T02:48:09.489Z,19.50
2023-09-03T02:50:37.528Z,19.50
2023-09-03T02:53:08.319Z,19.40
2023-09-03T02:55:34.869Z,19.40
2023-09-03T02:58:01.669Z,19.40
2023-09-03T03:00:28.991Z,19.40
2023-09-03T03:02:55.647Z,19.40
2023-09-03T03:05:22.342Z,19.40
2023-09-03T03:07:48.998Z,19.40
2023-09-03T03:10:15.711Z,19.30
2023-09-03T03:12:45.641Z,19.20
2023-09-03T03:15:12.372Z,19.20
2023-09-03T03:17:39.197Z,19.20
2023-09-03T03:20:06.548Z,19.30
2023-09-03T03:22:33.167Z,19.30
2023-09-03T03:24:59.795Z,19.30
2023-09-03T03:27:26.531Z,19.30
2023-09-03T03:29:53.570Z,19.30
2023-09-03T03:32:20.897Z,19.30
2023-09-03T03:34:47.604Z,19.30
2023-09-03T03:37:14.184Z,19.30
2023-09-03T03:39:40.812Z,19.30
2023-09-03T03:42:07.445Z,19.30
2023-09-03T03:44:35.286Z,19.30
2023-09-03T03:47:01.949Z,19.30
2023-09-03T03:49:28.611Z,19.30
2023-09-03T03:51:55.212Z,19.30
2023-09-03T03:54:21.829Z,19.30
2023-09-03T03:56:48.444Z,19.40
2023-09-03T03:59:15.043Z,19.30
2023-09-03T04:01:41.815Z,19.30
2023-09-03T04:04:08.483Z,19.40
2023-09-03T04:06:35.150Z,19.30
2023-09-03T04:09:01.938Z,19.30
2023-09-03T04:11:28.660Z,19.20
2023-09-03T04:13:55.298Z,19.20
2023-09-03T04:16:23.711Z,19.10
2023-09-03T04:18:50.651Z,19.10
2023-09-03T04:21:17.820Z,19.10
2023-09-03T04:23:44.493Z,19.10
2023-09-03T04:26:12.167Z,19.10
2023-09-03T04:28:38.920Z,19.10
2023-09-03T04:31:05.945Z,19.00
2023-09-03T04:33:32.801Z,19.00
2023-09-03T04:36:02.202Z,19.00
2023-09-03T04:38:29.574Z,19.00
2023-09-03T04:40:57.157Z,19.00
2023-09-03T04:43:24.616Z,19.00
2023-09-03T04:45:53.484Z,19.10
2023-09-03T04:48:21.453Z,19.00
2023-09-03T04:50:49.163Z,19.00
2023-09-03T04:53:16.198Z,19.00
2023-09-03T04:55:43.316Z,19.00
2023-09-03T04:58:10.040Z,19.00
2023-09-03T05:00:37.902Z,19.10
2023-09-03T05:03:06.246Z,19.00
2023-09-03T05:05:43.947Z,19.10
2023-09-03T05:08:11.077Z,19.10
2023-09-03T05:10:39.030Z,19.10
2023-09-03T05:13:06.382Z,19.10
2023-09-03T05:15:34.529Z,19.20
2023-09-03T05:18:02.340Z,19.20
2023-09-03T05:20:29.428Z,19.20
2023-09-03T05:22:56.269Z,19.30
2023-09-03T05:25:23.141Z,19.30
2023-09-03T05:27:49.862Z,19.30
2023-09-03T05:30:16.620Z,19.40
2023-09-03T05:32:43.271Z,19.40
2023-09-03T05:35:10.774Z,19.40
2023-09-03T05:37:37.561Z,19.40
2023-09-03T05:40:05.754Z,19.40
2023-09-03T05:42:32.399Z,19.40
2023-09-03T05:45:00.147Z,19.40
2023-09-03T05:47:27.029Z,19.50
2023-09-03T05:49:58.157Z,19.50
2023-09-03T05:52:24.984Z,19.60
2023-09-03T05:54:51.796Z,19.70
2023-09-03T05:57:18.903Z,19.70
2023-09-03T05:59:50.882Z,19.80
2023-09-03T06:02:20.458Z,19.80
2023-09-03T06:04:47.346Z,19.90
2023-09-03T06:07:14.506Z,19.90
2023-09-03T06:09:41.316Z,19.90
2023-09-03T06:12:08.280Z,19.90
2023-09-03T06:14:35.228Z,20.00
2023-09-03T06:17:05.010Z,19.90
2023-09-03T06:19:31.903Z,20.00
2023-09-03T06:21:58.630Z,20.00
2023-09-03T06:24:26.404Z,20.10
2023-09-03T06:26:54.715Z,20.10
2023-09-03T06:29:21.371Z,20.20
2023-09-03T06:31:48.116Z,20.30
2023-09-03T06:34:14.774Z,20.40
2023-09-03T06:36:43.048Z,20.50
2023-09-03T06:39:11.518Z,20.60
2023-09-03T06:41:38.575Z,20.80
2023-09-03T06:44:05.915Z,20.90
2023-09-03T06:46:32.758Z,21.00
2023-09-03T06:48:59.493Z,21.20
2023-09-03T06:51:26.741Z,21.40
2023-09-03T06:53:53.352Z,21.50
2023-09-03T06:56:20.105Z,21.70
2023-09-03T06:58:47.156Z,21.70
2023-09-03T07:01:13.882Z,21.80
2023-09-03T07:03:40.627Z,22.00
2023-09-03T07:06:07.526Z,22.10
2023-09-03T07:08:34.961Z,22.20
2023-09-03T07:11:01.800Z,22.30
2023-09-03T07:13:28.426Z,22.30
2023-09-03T07:15:55.087Z,22.40
2023-09-03T07:18:22.123Z,22.40
2023-09-03T07:20:49.081Z,22.30
2023-09-03T07:23:16.226Z,22.30
2023-09-03T07:25:43.116Z,22.30
2023-09-03T07:28:09.758Z,22.30
2023-09-03T07:30:36.584Z,22.30
2023-09-03T07:33:03.482Z,22.40
2023-09-03T07:35:32.994Z,22.50
2023-09-03T07:37:59.679Z,22.50
2023-09-03T07:40:26.782Z,22.60
2023-09-03T07:42:53.587Z,22.70
2023-09-03T07:45:20.251Z,22.80
2023-09-03T07:47:46.988Z,22.80
2023-09-03T07:50:13.744Z,22.90
2023-09-03T07:52:40.361Z,22.90
2023-09-03T07:55:07.912Z,23.00
2023-09-03T07:57:34.642Z,23.00
2023-09-03T08:00:01.255Z,23.10
2023-09-03T08:02:27.974Z,23.10
2023-09-03T08:04:54.639Z,23.20
2023-09-03T08:07:21.416Z,23.30
2023-09-03T08:09:48.816Z,23.50
2023-09-03T08:12:15.429Z,23.60
2023-09-03T08:14:43.244Z,23.70
2023-09-03T08:17:09.854Z,23.70
2023-09-03T08:19:36.740Z,23.80
2023-09-03T08:22:03.962Z,23.80
2023-09-03T08:24:30.763Z,23.90
2023-09-03T08:26:59.398Z,24.00
2023-09-03T08:29:26.397Z,24.30
2023-09-03T08:31:53.092Z,24.50
2023-09-03T08:34:19.749Z,24.70
2023-09-03T08:36:46.327Z,24.90
2023-09-03T08:39:13.028Z,25.10
2023-09-03T08:41:40.900Z,25.20
2023-09-03T08:44:18.487Z,25.20
2023-09-03T08:46:48.026Z,25.30
2023-09-03T08:49:16.702Z,25.30
2023-09-03T08:51:43.454Z,25.30
2023-09-03T08:54:11.259Z,25.30
2023-09-03T08:56:37.942Z,25.20
2023-09-03T08:59:04.744Z,25.20
2023-09-03T09:01:32.693Z,25.30
2023-09-03T09:04:03.880Z,25.30
2023-09-03T09:06:32.385Z,25.30
2023-09-03T09:09:03.129Z,25.30
2023-09-03T09:11:43.070Z,25.30
2023-09-03T09:14:18.019Z,25.20
2023-09-03T09:16:44.592Z,25.20
2023-09-03T09:19:11.256Z,25.20
2023-09-03T09:21:37.876Z,25.20
2023-09-03T09:24:04.887Z,25.30
2023-09-03T09:26:32.613Z,25.30
2023-09-03T09:28:59.434Z,25.30
2023-09-03T09:31:33.940Z,25.40
2023-09-03T09:34:14.695Z,25.40
2023-09-03T09:36:53.431Z,25.50
2023-09-03T09:39:20.080Z,25.50
2023-09-03T09:41:47.392Z,25.40
2023-09-03T09:44:13.981Z,25.40
2023-09-03T09:46:43.534Z,25.30
2023-09-03T09:49:11.333Z,25.30
2023-09-03T09:51:38.059Z,25.20
2023-09-03T09:54:05.240Z,25.20
2023-09-03T09:56:35.287Z,25.20
2023-09-03T09:59:02.112Z,25.10
2023-09-03T10:01:46.695Z,25.20
2023-09-03T10:04:13.420Z,25.10
2023-09-03T10:06:41.466Z,25.00
2023-09-03T10:09:09.274Z,25.00
2023-09-03T10:11:36.137Z,25.00
2023-09-03T10:14:02.855Z,24.90
2023-09-03T10:16:33.452Z,24.80
2023-09-03T10:19:05.898Z,24.80
2023-09-03T10:24:09.896Z,24.70
2023-09-03T10:26:45.324Z,24.70
2023-09-03T10:29:14.247Z,24.70
2023-09-03T10:31:42.009Z,24.60
2023-09-03T10:34:14.087Z,24.60
2023-09-03T10:37:04.718Z,24.50
2023-09-03T10:39:31.421Z,24.50
2023-09-03T10:42:16.312Z,24.50
2023-09-03T10:44:44.807Z,24.40
2023-09-03T10:47:15.065Z,24.40
2023-09-03T10:49:52.907Z,24.30
2023-09-03T10:52:36.213Z,24.30
2023-09-03T10:55:17.784Z,24.20
2023-09-03T10:57:49.346Z,24.20
2023-09-03T11:00:22.650Z,24.10
2023-09-03T11:02:50.959Z,24.10
2023-09-03T11:05:27.617Z,24.10
2023-09-03T11:08:22.881Z,24.10
2023-09-03T11:10:49.942Z,24.20
2023-09-03T11:13:31.013Z,24.20
2023-09-03T11:16:03.622Z,24.20
2023-09-03T11:18:31.964Z,24.20
2023-09-03T11:20:59.467Z,24.20
2023-09-03T11:23:29.286Z,24.20
2023-09-03T11:26:00.278Z,24.20
2023-09-03T11:28:26.911Z,24.20
2023-09-03T11:31:01.507Z,24.10
2023-09-03T11:33:29.343Z,24.10
2023-09-03T11:35:56.441Z,24.10
2023-09-03T11:38:30.571Z,24.10
2023-09-03T11:40:58.076Z,24.10
2023-09-03T11:43:26.173Z,24.10
2023-09-03T11:45:53.202Z,24.10
2023-09-03T11:48:27.999Z,24.10
2023-09-03T11:50:54.919Z,24.10
2023-09-03T11:53:23.246Z,24.10
2023-09-03T11:55:53.959Z,24.10
2023-09-03T11:58:22.790Z,24.10
2023-09-03T12:00:50.582Z,24.10
2023-09-03T12:03:17.645Z,24.10
2023-09-03T12:05:44.736Z,24.10
2023-09-03T12:08:11.617Z,24.10
2023-09-03T12:10:40.294Z,24.10
2023-09-03T12:13:08.400Z,24.10
2023-09-03T12:15:35.582Z,24.10
2023-09-03T12:18:09.118Z,24.10
2023-09-03T12:20:46.658Z,24.10
2023-09-03T12:23:19.879Z,24.20
2023-09-03T12:25:47.434Z,24.20
2023-09-03T12:28:14.043Z,24.10
2023-09-03T12:30:58.354Z,24.10
2023-09-03T12:33:45.757Z,24.10
2023-09-03T12:36:17.689Z,24.10
2023-09-03T12:39:10.935Z,24.10
2023-09-03T12:41:38.604Z,24.10
2023-09-03T12:44:08.158Z,24.10
2023-09-03T12:46:38.294Z,24.10
2023-09-03T12:49:05.606Z,24.10
2023-09-03T12:51:34.290Z,24.10
2023-09-03T12:54:00.980Z,24.10
2023-09-03T12:56:29.470Z,24.10
2023-09-03T12:58:56.358Z,24.10
2023-09-03T13:01:23.035Z,24.10
2023-09-03T13:03:49.791Z,24.20
2023-09-03T13:06:16.695Z,24.20
2023-09-03T13:08:44.643Z,24.20
2023-09-03T13:11:12.643Z,24.10
2023-09-03T13:13:39.271Z,24.10
2023-09-03T13:16:05.905Z,24.10
2023-09-03T13:18:33.539Z,24.10
2023-09-03T13:21:01.675Z,24.10
2023-09-03T13:23:28.305Z,24.10
2023-09-03T13:25:54.881Z,24.10
2023-09-03T13:28:21.501Z,24.10
2023-09-03T13:30:57.676Z,24.10
2023-09-03T13:33:35.187Z,24.10
2023-09-03T13:36:04.930Z,24.10
2023-09-03T13:38:33.191Z,24.10
2023-09-03T13:40:59.929Z,24.10
2023-09-03T13:43:26.731Z,24.10
2023-09-03T13:45:57.502Z,24.10
2023-09-03T13:48:24.448Z,24.20
2023-09-03T13:50:52.502Z,24.10
2023-09-03T13:53:19.361Z,24.10
2023-09-03T13:55:46.309Z,24.10
2023-09-03T13:58:12.887Z,24.10
2023-09-03T14:00:40.744Z,24.10
2023-09-03T14:03:07.591Z,24.10
2023-09-03T14:05:34.504Z,24.00
2023-09-03T14:08:01.137Z,24.00
2023-09-03T14:10:27.764Z,24.10
2023-09-03T14:12:54.464Z,24.10
2023-09-03T14:15:21.075Z,24.10
2023-09-03T14:17:47.773Z,24.10
2023-09-03T14:20:14.603Z,24.00
2023-09-03T14:22:43.236Z,24.10
2023-09-03T14:25:10.064Z,24.10
2023-09-03T14:27:36.724Z,24.10
2023-09-03T14:30:04.180Z,24.10
2023-09-03T14:32:30.895Z,24.10
2023-09-03T14:34:57.864Z,24.10
2023-09-03T14:37:24.473Z,24.10
2023-09-03T14:39:51.079Z,24.10
2023-09-03T14:42:17.679Z,24.10
2023-09-03T14:44:44.290Z,24.10
2023-09-03T14:47:10.939Z,24.20
2023-09-03T14:49:42.603Z,24.20
2023-09-03T14:52:11.357Z,24.20
2023-09-03T14:54:38.845Z,24.20
2023-09-03T14:57:05.847Z,24.20
2023-09-03T14:59:32.641Z,24.10
2023-09-03T15:02:00.456Z,24.10
2023-09-03T15:04:27.272Z,24.10
2023-09-03T15:06:53.946Z,24.10
2023-09-03T15:09:20.597Z,24.10
2023-09-03T15:11:47.267Z,24.10
2023-09-03T15:14:15.648Z,24.10
2023-09-03T15:16:43.283Z,24.10
2023-09-03T15:19:09.984Z,24.10
2023-09-03T15:21:36.732Z,24.10
2023-09-03T15:24:03.634Z,24.10
2023-09-03T15:26:30.696Z,24.10
2023-09-03T15:28:57.499Z,24.10
2023-09-03T15:31:24.383Z,24.10
2023-09-03T15:33:50.980Z,24.10
2023-09-03T15:36:17.589Z,24.10
2023-09-03T15:38:44.234Z,24.00
2023-09-03T15:41:10.862Z,24.00
2023-09-03T15:43:37.462Z,23.90
2023-09-03T15:46:04.122Z,24.00
2023-09-03T15:48:30.811Z,23.90
2023-09-03T15:50:57.460Z,23.90
2023-09-03T15:53:26.427Z,23.90
2023-09-03T15:55:56.618Z,23.90
2023-09-03T15:58:24.223Z,23.90
2023-09-03T16:00:51.135Z,23.80
2023-09-03T16:03:20.507Z,23.90
2023-09-03T16:05:47.572Z,23.80
2023-09-03T16:08:14.413Z,23.80
2023-09-03T16:10:41.005Z,23.80
2023-09-03T16:13:08.517Z,23.80
2023-09-03T16:15:40.480Z,23.70
2023-09-03T16:18:08.331Z,23.80
2023-09-03T16:20:38.803Z,23.70
2023-09-03T16:23:05.585Z,23.70
2023-09-03T16:25:32.361Z,23.70
2023-09-03T16:27:59.338Z,23.70
2023-09-03T16:30:26.212Z,23.70
2023-09-03T16:32:53.254Z,23.70
2023-09-03T16:35:23.270Z,23.70
2023-09-03T16:37:51.140Z,23.70
2023-09-03T16:40:17.852Z,23.80
2023-09-03T16:42:45.813Z,23.70
2023-09-03T16:45:12.555Z,23.70
2023-09-03T16:47:40.105Z,23.70
2023-09-03T16:50:07.306Z,23.70
2023-09-03T16:52:34.772Z,23.70
2023-09-03T16:55:01.774Z,23.70
2023-09-03T16:57:29.068Z,23.70
2023-09-03T16:59:55.988Z,23.70
2023-09-03T17:02:23.308Z,23.70
2023-09-03T17:04:49.949Z,23.70
2023-09-03T17:07:16.726Z,23.70
2023-09-03T17:09:43.484Z,23.60
2023-09-03T17:12:13.615Z,23.60
2023-09-03T17:14:40.414Z,23.60
2023-09-03T17:17:07.855Z,23.60
2023-09-03T17:19:36.079Z,23.50
2023-09-03T17:22:03.756Z,23.50
2023-09-03T17:24:30.519Z,23.50
2023-09-03T17:26:57.148Z,23.50
2023-09-03T17:29:23.789Z,23.50
2023-09-03T17:31:52.076Z,23.50
2023-09-03T17:34:20.059Z,23.40
2023-09-03T17:36:47.269Z,23.40
2023-09-03T17:39:14.918Z,23.40
2023-09-03T17:41:41.768Z,23.40
2023-09-03T17:44:08.516Z,23.40
2023-09-03T17:46:35.472Z,23.30
2023-09-03T17:49:02.345Z,23.30
2023-09-03T17:51:29.262Z,23.40
2023-09-03T17:53:57.102Z,23.30
2023-09-03T17:56:23.885Z,23.30
2023-09-03T17:58:50.646Z,23.30
2023-09-03T18:01:19.059Z,23.30
2023-09-03T18:03:46.277Z,23.20
2023-09-03T18:06:13.513Z,23.30
2023-09-03T18:08:40.850Z,23.20
2023-09-03T18:11:18.984Z,23.20
2023-09-03T18:13:46.058Z,23.20
2023-09-03T18:16:15.191Z,23.20
2023-09-03T18:18:45.644Z,23.20
2023-09-03T18:21:14.760Z,23.20
2023-09-03T18:23:43.235Z,23.10
2023-09-03T18:26:09.941Z,23.10
2023-09-03T18:28:36.537Z,23.10
2023-09-03T18:31:03.400Z,23.10
2023-09-03T18:33:30.072Z,23.10
2023-09-03T18:35:56.883Z,23.10
2023-09-03T18:38:24.304Z,23.00
2023-09-03T18:40:51.423Z,23.00
2023-09-03T18:43:18.189Z,23.00
2023-09-03T18:45:44.947Z,23.00
2023-09-03T18:48:11.763Z,23.00
2023-09-03T18:50:38.436Z,23.00
2023-09-03T18:53:05.255Z,22.90
2023-09-03T18:55:37.454Z,22.90
2023-09-03T18:58:05.084Z,22.90
2023-09-03T19:00:32.471Z,22.90
2023-09-03T19:02:59.374Z,22.90
2023-09-03T19:05:26.002Z,22.80
2023-09-03T19:07:52.698Z,22.80
2023-09-03T19:10:19.567Z,22.80
2023-09-03T19:12:46.161Z,22.80
2023-09-03T19:15:12.898Z,22.80
2023-09-03T19:17:39.568Z,22.80
2023-09-03T19:20:06.884Z,22.70
2023-09-03T19:22:33.583Z,22.70
2023-09-03T19:25:00.608Z,22.70
2023-09-03T19:27:27.216Z,22.70
2023-09-03T19:29:53.815Z,22.70
2023-09-03T19:32:20.379Z,22.70
2023-09-03T19:34:47.022Z,22.70
2023-09-03T19:37:16.486Z,22.60
2023-09-03T19:39:43.139Z,22.60
2023-09-03T19:42:09.781Z,22.60
2023-09-03T19:44:36.516Z,22.50
2023-09-03T19:47:05.452Z,22.60
2023-09-03T19:49:32.495Z,22.60
2023-09-03T19:51:59.214Z,22.60
2023-09-03T19:54:25.845Z,22.60
2023-09-03T19:56:52.507Z,22.60
2023-09-03T19:59:19.208Z,22.50
2023-09-03T20:01:45.939Z,22.50
2023-09-03T20:04:12.743Z,22.50
2023-09-03T20:06:39.381Z,22.50
2023-09-03T20:09:07.055Z,22.40
2023-09-03T20:11:33.846Z,22.40
2023-09-03T20:14:00.828Z,22.40
2023-09-03T20:16:29.038Z,22.40
2023-09-03T20:18:56.154Z,22.40
2023-09-03T20:21:23.095Z,22.30
2023-09-03T20:23:49.788Z,22.30
2023-09-03T20:26:17.444Z,22.30
2023-09-03T20:28:47.431Z,22.30
2023-09-03T20:31:15.930Z,22.30
2023-09-03T20:33:43.412Z,22.30
2023-09-03T20:36:10.233Z,22.30
2023-09-03T20:38:37.269Z,22.20
2023-09-03T20:41:05.195Z,22.20
2023-09-03T20:43:32.399Z,22.20
2023-09-03T20:45:59.934Z,22.20
2023-09-03T20:48:27.390Z,22.10
2023-09-03T20:51:01.351Z,22.20
2023-09-03T20:53:28.358Z,22.10
2023-09-03T20:55:56.387Z,22.10
2023-09-03T20:58:24.522Z,22.10
2023-09-03T21:00:51.988Z,22.00
2023-09-03T21:03:18.948Z,22.00
2023-09-03T21:05:55.457Z,22.00
2023-09-03T21:08:25.026Z,22.00
2023-09-03T21:10:57.198Z,21.90
2023-09-03T21:13:24.356Z,21.90
2023-09-03T21:15:57.207Z,21.80
2023-09-03T21:18:25.720Z,21.80
2023-09-03T21:20:54.704Z,21.80
2023-09-03T21:23:22.788Z,21.70
2023-09-03T21:25:50.597Z,21.70
2023-09-03T21:28:17.511Z,21.70
2023-09-03T21:30:44.151Z,21.70
2023-09-03T21:33:10.766Z,21.70
2023-09-03T21:35:41.253Z,21.70
2023-09-03T21:38:08.108Z,21.70
2023-09-03T21:40:35.753Z,21.70
2023-09-03T21:43:03.379Z,21.70
2023-09-03T21:45:30.922Z,21.60
2023-09-03T21:47:57.692Z,21.60
2023-09-03T21:50:24.387Z,21.60
2023-09-03T21:52:50.995Z,21.60
2023-09-03T21:55:17.824Z,21.60
2023-09-03T21:57:44.506Z,21.50
2023-09-03T22:00:12.210Z,21.50
2023-09-03T22:02:40.659Z,21.40
2023-09-03T22:05:09.550Z,21.40
2023-09-03T22:07:36.989Z,21.40
2023-09-03T22:10:04.384Z,21.40
2023-09-03T22:12:31.296Z,21.40
2023-09-03T22:14:58.285Z,21.40
2023-09-03T22:17:25.040Z,21.40
2023-09-03T22:19:52.303Z,21.40
2023-09-03T22:22:19.197Z,21.30
2023-09-03T22:24:45.886Z,21.30
2023-09-03T22:27:12.573Z,21.20
2023-09-03T22:29:39.200Z,21.10
2023-09-03T22:32:06.199Z,21.10
2023-09-03T22:34:33.166Z,21.10
2023-09-03T22:36:59.833Z,21.00
2023-09-03T22:39:26.900Z,20.90
2023-09-03T22:41:54.402Z,20.90
2023-09-03T22:44:21.185Z,20.90
2023-09-03T22:46:47.857Z,20.80
2023-09-03T22:49:14.544Z,20.80
2023-09-03T22:51:41.276Z,20.80
2023-09-03T22:54:07.966Z,20.80
2023-09-03T22:56:34.601Z,20.80
2023-09-03T22:59:01.230Z,20.80
2023-09-03T23:01:27.982Z,20.80
2023-09-03T23:03:54.734Z,20.80
2023-09-03T23:06:21.547Z,20.80
2023-09-03T23:08:48.230Z,20.80
2023-09-03T23:11:14.844Z,20.80
2023-09-03T23:13:43.106Z,20.80
2023-09-03T23:16:11.333Z,20.80
2023-09-03T23:18:39.541Z,20.90
2023-09-03T23:21:11.332Z,20.80
2023-09-03T23:23:40.141Z,20.80
2023-09-03T23:26:07.710Z,20.80
2023-09-03T23:28:34.457Z,20.90
2023-09-03T23:31:01.181Z,20.90
2023-09-03T23:33:28.015Z,20.90
2023-09-03T23:35:54.700Z,20.90
2023-09-03T23:38:21.565Z,21.00
2023-09-03T23:40:48.626Z,20.90
2023-09-03T23:43:15.212Z,20.90
2023-09-03T23:45:46.186Z,20.90
2023-09-03T23:48:13.187Z,20.90
2023-09-03T23:50:39.839Z,20.80
2023-09-03T23:53:06.430Z,20.80
2023-09-03T23:55:33.393Z,20.80
2023-09-03T23:57:59.999Z,20.70
